sensor_id;sensor_type;location;lat;lon;timestamp;pressure;altitude;pressure_sealevel;temperature;humidity
73016;BME280;61893;50.074;14.440;2023-07-24T00:02:17;97810.22;;;21.53;39.61
73016;BME280;61893;50.074;14.440;2023-07-24T00:04:48;97804.69;;;21.48;39.73
73016;BME280;61893;50.074;14.440;2023-07-24T00:07:15;97805.28;;;21.50;39.44
73016;BME280;61893;50.074;14.440;2023-07-24T00:09:48;97795.44;;;21.44;39.62
73016;BME280;61893;50.074;14.440;2023-07-24T00:15:17;97789.78;;;21.34;39.90
73016;BME280;61893;50.074;14.440;2023-07-24T00:17:55;97790.50;;;21.41;39.75
73016;BME280;61893;50.074;14.440;2023-07-24T00:20:28;97788.94;;;21.45;39.71
73016;BME280;61893;50.074;14.440;2023-07-24T00:22:54;97784.75;;;21.38;39.72
73016;BME280;61893;50.074;14.440;2023-07-24T00:25:25;97782.59;;;21.40;39.78
73016;BME280;61893;50.074;14.440;2023-07-24T00:30:33;97782.94;;;21.43;39.63
73016;BME280;61893;50.074;14.440;2023-07-24T00:32:59;97779.09;;;21.39;39.88
73016;BME280;61893;50.074;14.440;2023-07-24T00:37:59;97777.78;;;21.30;39.93
73016;BME280;61893;50.074;14.440;2023-07-24T00:46:05;97770.50;;;21.30;39.93
73016;BME280;61893;50.074;14.440;2023-07-24T00:48:30;97775.31;;;21.40;39.34
73016;BME280;61893;50.074;14.440;2023-07-24T00:50:57;97773.94;;;21.38;39.47
73016;BME280;61893;50.074;14.440;2023-07-24T00:53:23;97777.78;;;21.30;39.46
73016;BME280;61893;50.074;14.440;2023-07-24T00:55:49;97774.97;;;21.25;39.34
73016;BME280;61893;50.074;14.440;2023-07-24T00:58:16;97781.34;;;21.19;39.43
73016;BME280;61893;50.074;14.440;2023-07-24T01:00:42;97778.66;;;21.19;39.66
73016;BME280;61893;50.074;14.440;2023-07-24T01:03:09;97781.59;;;21.05;39.77
73016;BME280;61893;50.074;14.440;2023-07-24T01:05:35;97779.94;;;21.16;39.78
73016;BME280;61893;50.074;14.440;2023-07-24T01:08:01;97784.09;;;21.07;39.98
73016;BME280;61893;50.074;14.440;2023-07-24T01:10:27;97789.59;;;21.00;40.41
73016;BME280;61893;50.074;14.440;2023-07-24T01:13:05;97791.75;;;20.98;40.63
73016;BME280;61893;50.074;14.440;2023-07-24T01:15:48;97790.47;;;20.89;40.89
73016;BME280;61893;50.074;14.440;2023-07-24T01:18:15;97783.16;;;20.89;41.05
73016;BME280;61893;50.074;14.440;2023-07-24T01:20:49;97786.81;;;20.83;41.33
73016;BME280;61893;50.074;14.440;2023-07-24T01:26:14;97783.16;;;20.66;42.39
73016;BME280;61893;50.074;14.440;2023-07-24T01:28:40;97788.09;;;20.57;42.46
73016;BME280;61893;50.074;14.440;2023-07-24T01:31:06;97784.09;;;20.60;42.88
73016;BME280;61893;50.074;14.440;2023-07-24T01:33:31;97778.44;;;20.50;42.96
73016;BME280;61893;50.074;14.440;2023-07-24T01:36:00;97776.09;;;20.41;43.07
73016;BME280;61893;50.074;14.440;2023-07-24T01:38:28;97775.84;;;20.43;43.24
73016;BME280;61893;50.074;14.440;2023-07-24T01:40:57;97764.56;;;20.34;43.81
73016;BME280;61893;50.074;14.440;2023-07-24T01:43:24;97776.69;;;20.32;43.94
73016;BME280;61893;50.074;14.440;2023-07-24T01:45:53;97755.75;;;20.27;44.02
73016;BME280;61893;50.074;14.440;2023-07-24T01:48:19;97756.44;;;20.22;43.92
73016;BME280;61893;50.074;14.440;2023-07-24T01:50:44;97753.28;;;20.14;44.62
73016;BME280;61893;50.074;14.440;2023-07-24T01:53:10;97739.88;;;20.07;44.58
73016;BME280;61893;50.074;14.440;2023-07-24T01:55:36;97753.97;;;19.97;44.76
73016;BME280;61893;50.074;14.440;2023-07-24T01:58:02;97751.28;;;19.97;45.30
73016;BME280;61893;50.074;14.440;2023-07-24T02:00:28;97749.25;;;19.93;45.35
73016;BME280;61893;50.074;14.440;2023-07-24T02:02:53;97728.94;;;20.02;44.86
73016;BME280;61893;50.074;14.440;2023-07-24T02:05:19;97722.59;;;19.96;45.00
73016;BME280;61893;50.074;14.440;2023-07-24T02:07:45;97718.50;;;19.94;45.55
73016;BME280;61893;50.074;14.440;2023-07-24T02:10:14;97718.13;;;19.90;45.29
73016;BME280;61893;50.074;14.440;2023-07-24T02:12:52;97718.94;;;19.91;45.78
73016;BME280;61893;50.074;14.440;2023-07-24T02:15:17;97723.66;;;19.95;45.33
73016;BME280;61893;50.074;14.440;2023-07-24T02:17:43;97723.06;;;19.93;46.11
73016;BME280;61893;50.074;14.440;2023-07-24T02:20:09;97724.47;;;19.96;45.74
73016;BME280;61893;50.074;14.440;2023-07-24T02:22:35;97725.22;;;20.03;45.40
73016;BME280;61893;50.074;14.440;2023-07-24T02:25:04;97733.88;;;20.05;45.56
73016;BME280;61893;50.074;14.440;2023-07-24T02:27:31;97749.53;;;20.03;45.70
73016;BME280;61893;50.074;14.440;2023-07-24T02:30:03;97756.78;;;20.02;45.90
73016;BME280;61893;50.074;14.440;2023-07-24T02:32:29;97766.63;;;20.09;45.64
73016;BME280;61893;50.074;14.440;2023-07-24T02:34:55;97768.78;;;20.07;45.77
73016;BME280;61893;50.074;14.440;2023-07-24T02:37:21;97774.50;;;19.98;46.27
73016;BME280;61893;50.074;14.440;2023-07-24T02:39:47;97776.38;;;19.98;46.40
73016;BME280;61893;50.074;14.440;2023-07-24T02:42:15;97771.44;;;19.95;46.40
73016;BME280;61893;50.074;14.440;2023-07-24T02:44:42;97772.09;;;19.78;46.49
73016;BME280;61893;50.074;14.440;2023-07-24T02:47:07;97760.34;;;19.73;46.89
73016;BME280;61893;50.074;14.440;2023-07-24T02:49:34;97758.78;;;19.65;47.16
73016;BME280;61893;50.074;14.440;2023-07-24T02:51:59;97760.81;;;19.70;47.33
73016;BME280;61893;50.074;14.440;2023-07-24T02:54:25;97769.41;;;19.60;47.45
73016;BME280;61893;50.074;14.440;2023-07-24T02:56:54;97778.72;;;19.64;47.74
73016;BME280;61893;50.074;14.440;2023-07-24T03:01:57;97783.59;;;19.55;47.95
73016;BME280;61893;50.074;14.440;2023-07-24T03:04:27;97788.75;;;19.57;48.03
73016;BME280;61893;50.074;14.440;2023-07-24T03:06:55;97784.22;;;19.57;48.28
73016;BME280;61893;50.074;14.440;2023-07-24T03:09:24;97780.81;;;19.62;47.98
73016;BME280;61893;50.074;14.440;2023-07-24T03:11:51;97781.41;;;19.64;48.34
73016;BME280;61893;50.074;14.440;2023-07-24T03:14:17;97790.84;;;19.73;47.86
73016;BME280;61893;50.074;14.440;2023-07-24T03:16:42;97787.16;;;19.86;48.34
73016;BME280;61893;50.074;14.440;2023-07-24T03:19:08;97779.03;;;19.74;49.51
73016;BME280;61893;50.074;14.440;2023-07-24T03:21:34;97774.06;;;19.71;50.90
73016;BME280;61893;50.074;14.440;2023-07-24T03:24:00;97767.50;;;19.67;51.78
73016;BME280;61893;50.074;14.440;2023-07-24T03:26:26;97764.13;;;19.53;53.39
73016;BME280;61893;50.074;14.440;2023-07-24T03:28:54;97767.31;;;19.32;55.48
73016;BME280;61893;50.074;14.440;2023-07-24T03:31:20;97765.00;;;19.17;56.34
73016;BME280;61893;50.074;14.440;2023-07-24T03:33:46;97761.56;;;19.10;57.11
73016;BME280;61893;50.074;14.440;2023-07-24T03:36:12;97769.88;;;19.08;57.88
73016;BME280;61893;50.074;14.440;2023-07-24T03:38:44;97750.09;;;18.96;58.54
73016;BME280;61893;50.074;14.440;2023-07-24T03:41:13;97735.22;;;18.75;60.42
73016;BME280;61893;50.074;14.440;2023-07-24T03:43:45;97748.91;;;18.92;59.90
73016;BME280;61893;50.074;14.440;2023-07-24T03:46:11;97768.38;;;18.94;60.12
73016;BME280;61893;50.074;14.440;2023-07-24T03:48:40;97754.56;;;18.65;61.92
73016;BME280;61893;50.074;14.440;2023-07-24T03:51:06;97739.28;;;18.59;63.45
73016;BME280;61893;50.074;14.440;2023-07-24T03:53:36;97734.50;;;18.61;64.45
73016;BME280;61893;50.074;14.440;2023-07-24T03:56:01;97717.22;;;18.69;65.26
73016;BME280;61893;50.074;14.440;2023-07-24T03:58:27;97729.31;;;18.60;64.81
73016;BME280;61893;50.074;14.440;2023-07-24T04:00:53;97719.16;;;18.62;65.21
73016;BME280;61893;50.074;14.440;2023-07-24T04:03:22;97723.94;;;18.60;65.57
73016;BME280;61893;50.074;14.440;2023-07-24T04:08:29;97715.56;;;18.50;67.00
73016;BME280;61893;50.074;14.440;2023-07-24T04:10:55;97714.59;;;18.44;67.52
73016;BME280;61893;50.074;14.440;2023-07-24T04:13:22;97710.34;;;18.55;67.74
73016;BME280;61893;50.074;14.440;2023-07-24T04:15:48;97703.22;;;18.60;66.92
73016;BME280;61893;50.074;14.440;2023-07-24T04:18:14;97714.97;;;18.66;66.57
73016;BME280;61893;50.074;14.440;2023-07-24T04:20:40;97705.41;;;18.52;67.09
73016;BME280;61893;50.074;14.440;2023-07-24T04:23:06;97691.75;;;18.46;68.20
73016;BME280;61893;50.074;14.440;2023-07-24T04:25:33;97679.13;;;18.47;67.82
73016;BME280;61893;50.074;14.440;2023-07-24T04:27:59;97677.69;;;18.44;68.45
73016;BME280;61893;50.074;14.440;2023-07-24T04:30:25;97672.31;;;18.44;68.53
73016;BME280;61893;50.074;14.440;2023-07-24T04:32:54;97657.78;;;18.45;68.21
73016;BME280;61893;50.074;14.440;2023-07-24T04:35:20;97653.00;;;18.48;68.79
73016;BME280;61893;50.074;14.440;2023-07-24T04:37:47;97639.38;;;18.42;68.64
73016;BME280;61893;50.074;14.440;2023-07-24T04:40:17;97645.00;;;18.41;69.14
73016;BME280;61893;50.074;14.440;2023-07-24T04:42:42;97638.09;;;18.45;68.35
73016;BME280;61893;50.074;14.440;2023-07-24T04:47:45;97657.72;;;18.52;67.81
73016;BME280;61893;50.074;14.440;2023-07-24T04:50:17;97666.31;;;18.61;67.37
73016;BME280;61893;50.074;14.440;2023-07-24T04:52:47;97666.03;;;18.69;67.16
73016;BME280;61893;50.074;14.440;2023-07-24T04:55:13;97673.97;;;18.82;66.27
73016;BME280;61893;50.074;14.440;2023-07-24T04:57:39;97680.41;;;18.81;66.90
73016;BME280;61893;50.074;14.440;2023-07-24T05:00:08;97675.47;;;18.78;66.48
73016;BME280;61893;50.074;14.440;2023-07-24T05:02:35;97678.44;;;19.07;65.94
73016;BME280;61893;50.074;14.440;2023-07-24T05:05:01;97672.75;;;18.97;65.81
73016;BME280;61893;50.074;14.440;2023-07-24T05:07:27;97665.63;;;19.32;64.55
73016;BME280;61893;50.074;14.440;2023-07-24T05:09:54;97661.28;;;19.31;64.45
73016;BME280;61893;50.074;14.440;2023-07-24T05:12:26;97663.66;;;19.40;64.24
73016;BME280;61893;50.074;14.440;2023-07-24T05:14:55;97673.91;;;19.49;64.29
73016;BME280;61893;50.074;14.440;2023-07-24T05:17:21;97669.72;;;19.65;63.95
73016;BME280;61893;50.074;14.440;2023-07-24T05:19:49;97669.19;;;19.45;64.06
73016;BME280;61893;50.074;14.440;2023-07-24T05:22:15;97665.78;;;19.38;65.04
73016;BME280;61893;50.074;14.440;2023-07-24T05:27:24;97659.09;;;19.94;62.70
73016;BME280;61893;50.074;14.440;2023-07-24T05:29:50;97654.63;;;20.11;61.46
73016;BME280;61893;50.074;14.440;2023-07-24T05:32:20;97650.63;;;20.37;60.95
73016;BME280;61893;50.074;14.440;2023-07-24T05:34:48;97653.81;;;20.22;61.23
73016;BME280;61893;50.074;14.440;2023-07-24T05:37:14;97647.09;;;20.48;59.17
73016;BME280;61893;50.074;14.440;2023-07-24T05:39:46;97650.16;;;20.52;59.09
73016;BME280;61893;50.074;14.440;2023-07-24T05:42:16;97654.28;;;20.66;59.09
73016;BME280;61893;50.074;14.440;2023-07-24T05:44:47;97652.63;;;20.54;60.01
73016;BME280;61893;50.074;14.440;2023-07-24T05:47:16;97663.75;;;20.81;59.29
73016;BME280;61893;50.074;14.440;2023-07-24T05:49:44;97671.81;;;20.92;58.78
73016;BME280;61893;50.074;14.440;2023-07-24T05:52:13;97665.78;;;21.02;57.90
73016;BME280;61893;50.074;14.440;2023-07-24T05:54:43;97670.81;;;21.10;58.45
73016;BME280;61893;50.074;14.440;2023-07-24T05:57:11;97666.75;;;21.25;57.54
73016;BME280;61893;50.074;14.440;2023-07-24T05:59:38;97660.09;;;21.15;57.30
73016;BME280;61893;50.074;14.440;2023-07-24T06:02:04;97651.56;;;21.07;57.62
73016;BME280;61893;50.074;14.440;2023-07-24T06:04:31;97644.03;;;21.09;57.24
73016;BME280;61893;50.074;14.440;2023-07-24T06:07:07;97639.22;;;21.28;56.73
73016;BME280;61893;50.074;14.440;2023-07-24T06:09:34;97643.00;;;21.55;55.45
73016;BME280;61893;50.074;14.440;2023-07-24T06:12:04;97643.13;;;21.49;55.26
73016;BME280;61893;50.074;14.440;2023-07-24T06:14:30;97649.94;;;21.51;55.21
73016;BME280;61893;50.074;14.440;2023-07-24T06:16:56;97647.72;;;21.20;56.57
73016;BME280;61893;50.074;14.440;2023-07-24T06:19:35;97662.03;;;21.32;56.20
73016;BME280;61893;50.074;14.440;2023-07-24T06:22:03;97652.34;;;21.36;56.29
73016;BME280;61893;50.074;14.440;2023-07-24T06:24:35;97644.84;;;21.38;56.50
73016;BME280;61893;50.074;14.440;2023-07-24T06:29:57;97652.03;;;21.32;56.72
73016;BME280;61893;50.074;14.440;2023-07-24T06:32:26;97663.13;;;21.19;57.13
73016;BME280;61893;50.074;14.440;2023-07-24T06:34:52;97673.91;;;21.31;56.81
73016;BME280;61893;50.074;14.440;2023-07-24T06:37:21;97668.13;;;21.39;56.84
73016;BME280;61893;50.074;14.440;2023-07-24T06:39:53;97659.22;;;21.55;56.88
73016;BME280;61893;50.074;14.440;2023-07-24T06:42:29;97665.13;;;21.52;55.95
73016;BME280;61893;50.074;14.440;2023-07-24T06:44:56;97661.59;;;21.69;55.94
73016;BME280;61893;50.074;14.440;2023-07-24T06:49:52;97648.25;;;21.96;54.71
73016;BME280;61893;50.074;14.440;2023-07-24T06:52:25;97667.94;;;22.25;54.73
73016;BME280;61893;50.074;14.440;2023-07-24T06:54:51;97662.91;;;22.17;55.16
73016;BME280;61893;50.074;14.440;2023-07-24T06:57:28;97654.69;;;22.45;53.38
73016;BME280;61893;50.074;14.440;2023-07-24T06:59:54;97646.44;;;22.57;52.67
73016;BME280;61893;50.074;14.440;2023-07-24T07:02:19;97636.03;;;22.71;52.23
73016;BME280;61893;50.074;14.440;2023-07-24T07:04:45;97625.13;;;22.88;50.99
73016;BME280;61893;50.074;14.440;2023-07-24T07:07:11;97622.53;;;22.76;51.50
73016;BME280;61893;50.074;14.440;2023-07-24T07:09:39;97631.47;;;22.16;52.78
73016;BME280;61893;50.074;14.440;2023-07-24T07:12:06;97633.72;;;22.02;53.43
73016;BME280;61893;50.074;14.440;2023-07-24T07:14:32;97619.59;;;21.83;54.30
73016;BME280;61893;50.074;14.440;2023-07-24T07:16:58;97615.44;;;21.58;54.79
73016;BME280;61893;50.074;14.440;2023-07-24T07:19:23;97618.47;;;21.62;55.21
73016;BME280;61893;50.074;14.440;2023-07-24T07:21:49;97625.75;;;21.95;54.58
73016;BME280;61893;50.074;14.440;2023-07-24T07:24:15;97615.28;;;22.82;51.13
73016;BME280;61893;50.074;14.440;2023-07-24T07:29:22;97613.56;;;24.69;45.71
73016;BME280;61893;50.074;14.440;2023-07-24T07:34:36;97635.88;;;26.05;42.41
73016;BME280;61893;50.074;14.440;2023-07-24T07:37:08;97632.00;;;27.96;37.96
73016;BME280;61893;50.074;14.440;2023-07-24T07:39:34;97629.84;;;29.37;35.35
73016;BME280;61893;50.074;14.440;2023-07-24T07:42:00;97627.94;;;30.83;32.57
73016;BME280;61893;50.074;14.440;2023-07-24T07:44:26;97634.25;;;29.90;33.62
73016;BME280;61893;50.074;14.440;2023-07-24T07:49:26;97633.38;;;27.99;36.93
73016;BME280;61893;50.074;14.440;2023-07-24T07:51:53;97638.19;;;27.33;38.91
73016;BME280;61893;50.074;14.440;2023-07-24T07:54:18;97639.97;;;27.04;39.18
73016;BME280;61893;50.074;14.440;2023-07-24T07:56:50;97636.84;;;27.31;39.42
73016;BME280;61893;50.074;14.440;2023-07-24T07:59:21;97637.97;;;27.25;39.49
73016;BME280;61893;50.074;14.440;2023-07-24T08:01:59;97638.78;;;27.25;39.38
73016;BME280;61893;50.074;14.440;2023-07-24T08:07:26;97629.25;;;26.58;40.54
73016;BME280;61893;50.074;14.440;2023-07-24T08:09:52;97631.44;;;26.56;40.81
73016;BME280;61893;50.074;14.440;2023-07-24T08:15:06;97626.50;;;27.23;39.80
73016;BME280;61893;50.074;14.440;2023-07-24T08:23:29;97592.78;;;30.24;33.63
73016;BME280;61893;50.074;14.440;2023-07-24T08:26:04;97591.56;;;29.84;33.97
73016;BME280;61893;50.074;14.440;2023-07-24T08:28:33;97588.28;;;29.49;35.22
73016;BME280;61893;50.074;14.440;2023-07-24T08:31:00;97586.16;;;29.08;35.69
73016;BME280;61893;50.074;14.440;2023-07-24T08:33:30;97573.31;;;28.85;36.70
73016;BME280;61893;50.074;14.440;2023-07-24T08:36:08;97582.47;;;29.37;35.80
73016;BME280;61893;50.074;14.440;2023-07-24T08:38:44;97575.47;;;31.07;32.54
73016;BME280;61893;50.074;14.440;2023-07-24T08:43:55;97552.53;;;30.20;33.25
73016;BME280;61893;50.074;14.440;2023-07-24T08:46:21;97546.00;;;30.16;33.22
73016;BME280;61893;50.074;14.440;2023-07-24T08:51:28;97549.84;;;29.87;33.08
73016;BME280;61893;50.074;14.440;2023-07-24T08:53:55;97542.22;;;30.30;32.09
73016;BME280;61893;50.074;14.440;2023-07-24T08:56:25;97549.50;;;30.35;31.53
73016;BME280;61893;50.074;14.440;2023-07-24T08:59:00;97543.06;;;30.67;31.47
73016;BME280;61893;50.074;14.440;2023-07-24T09:04:02;97542.41;;;29.74;32.93
73016;BME280;61893;50.074;14.440;2023-07-24T09:06:29;97538.97;;;29.82;32.82
73016;BME280;61893;50.074;14.440;2023-07-24T09:08:55;97529.91;;;31.42;30.59
73016;BME280;61893;50.074;14.440;2023-07-24T09:13:49;97542.59;;;32.45;28.99
73016;BME280;61893;50.074;14.440;2023-07-24T09:16:29;97535.41;;;33.36;28.18
73016;BME280;61893;50.074;14.440;2023-07-24T09:19:17;97536.94;;;32.59;29.08
73016;BME280;61893;50.074;14.440;2023-07-24T09:22:15;97537.59;;;32.56;29.02
73016;BME280;61893;50.074;14.440;2023-07-24T09:25:07;97529.59;;;33.03;28.17
73016;BME280;61893;50.074;14.440;2023-07-24T09:27:36;97531.56;;;33.03;27.89
73016;BME280;61893;50.074;14.440;2023-07-24T09:30:19;97528.41;;;32.21;29.21
73016;BME280;61893;50.074;14.440;2023-07-24T09:35:20;97531.16;;;32.69;28.55
73016;BME280;61893;50.074;14.440;2023-07-24T09:38:05;97529.50;;;32.11;29.41
73016;BME280;61893;50.074;14.440;2023-07-24T09:40:45;97524.09;;;31.97;29.66
73016;BME280;61893;50.074;14.440;2023-07-24T09:45:52;97523.63;;;32.04;29.89
73016;BME280;61893;50.074;14.440;2023-07-24T09:48:21;97513.91;;;31.75;29.98
73016;BME280;61893;50.074;14.440;2023-07-24T09:50:51;97514.38;;;31.69;29.69
73016;BME280;61893;50.074;14.440;2023-07-24T09:53:54;97514.16;;;30.97;31.19
73016;BME280;61893;50.074;14.440;2023-07-24T09:56:24;97503.81;;;30.81;31.30
73016;BME280;61893;50.074;14.440;2023-07-24T09:58:51;97511.97;;;30.58;31.26
73016;BME280;61893;50.074;14.440;2023-07-24T10:03:52;97497.16;;;30.18;31.81
73016;BME280;61893;50.074;14.440;2023-07-24T10:06:19;97499.59;;;29.92;32.26
73016;BME280;61893;50.074;14.440;2023-07-24T10:08:47;97490.03;;;30.03;31.49
73016;BME280;61893;50.074;14.440;2023-07-24T10:14:02;97494.19;;;29.40;32.34
73016;BME280;61893;50.074;14.440;2023-07-24T10:16:30;97484.34;;;29.01;32.67
73016;BME280;61893;50.074;14.440;2023-07-24T10:18:59;97487.19;;;28.96;33.27
73016;BME280;61893;50.074;14.440;2023-07-24T10:21:28;97489.84;;;28.82;33.44
73016;BME280;61893;50.074;14.440;2023-07-24T10:23:54;97492.06;;;28.61;32.70
73016;BME280;61893;50.074;14.440;2023-07-24T10:26:25;97485.50;;;28.62;32.69
73016;BME280;61893;50.074;14.440;2023-07-24T10:28:53;97489.63;;;28.79;32.63
73016;BME280;61893;50.074;14.440;2023-07-24T10:34:06;97486.84;;;29.03;32.48
73016;BME280;61893;50.074;14.440;2023-07-24T10:36:35;97492.72;;;29.10;32.17
73016;BME280;61893;50.074;14.440;2023-07-24T10:39:01;97496.13;;;29.21;31.54
73016;BME280;61893;50.074;14.440;2023-07-24T10:41:36;97486.16;;;29.44;31.29
73016;BME280;61893;50.074;14.440;2023-07-24T10:44:05;97488.13;;;29.24;31.92
73016;BME280;61893;50.074;14.440;2023-07-24T10:46:42;97481.47;;;29.30;32.25
73016;BME280;61893;50.074;14.440;2023-07-24T10:49:08;97481.53;;;29.58;32.03
73016;BME280;61893;50.074;14.440;2023-07-24T10:51:35;97479.59;;;29.45;31.98
73016;BME280;61893;50.074;14.440;2023-07-24T10:54:04;97478.53;;;29.40;32.45
73016;BME280;61893;50.074;14.440;2023-07-24T10:56:32;97474.25;;;29.34;32.54
73016;BME280;61893;50.074;14.440;2023-07-24T10:59:08;97461.97;;;29.64;31.67
73016;BME280;61893;50.074;14.440;2023-07-24T11:01:43;97462.81;;;29.46;32.08
73016;BME280;61893;50.074;14.440;2023-07-24T11:04:09;97445.63;;;29.27;32.65
73016;BME280;61893;50.074;14.440;2023-07-24T11:06:43;97448.44;;;29.22;32.58
73016;BME280;61893;50.074;14.440;2023-07-24T11:09:11;97439.91;;;28.90;32.49
73016;BME280;61893;50.074;14.440;2023-07-24T11:11:43;97435.09;;;28.82;32.83
73016;BME280;61893;50.074;14.440;2023-07-24T11:16:55;97441.97;;;28.61;32.74
73016;BME280;61893;50.074;14.440;2023-07-24T11:19:26;97445.66;;;28.70;33.27
73016;BME280;61893;50.074;14.440;2023-07-24T11:21:52;97442.28;;;28.59;33.33
73016;BME280;61893;50.074;14.440;2023-07-24T11:27:09;97427.63;;;28.69;33.97
73016;BME280;61893;50.074;14.440;2023-07-24T11:29:46;97428.16;;;28.52;34.61
73016;BME280;61893;50.074;14.440;2023-07-24T11:32:20;97427.13;;;28.48;34.18
73016;BME280;61893;50.074;14.440;2023-07-24T11:35:04;97434.28;;;28.44;34.50
73016;BME280;61893;50.074;14.440;2023-07-24T11:37:44;97418.59;;;28.49;34.92
73016;BME280;61893;50.074;14.440;2023-07-24T11:40:19;97411.63;;;28.38;35.25
73016;BME280;61893;50.074;14.440;2023-07-24T11:42:52;97409.81;;;28.52;34.64
73016;BME280;61893;50.074;14.440;2023-07-24T11:45:43;97412.09;;;28.64;34.86
73016;BME280;61893;50.074;14.440;2023-07-24T11:48:11;97402.84;;;28.22;35.73
73016;BME280;61893;50.074;14.440;2023-07-24T11:53:25;97391.22;;;28.12;34.96
73016;BME280;61893;50.074;14.440;2023-07-24T11:56:33;97385.31;;;27.80;35.79
73016;BME280;61893;50.074;14.440;2023-07-24T11:59:21;97373.97;;;27.68;36.33
73016;BME280;61893;50.074;14.440;2023-07-24T12:02:29;97379.53;;;27.58;36.65
73016;BME280;61893;50.074;14.440;2023-07-24T12:04:56;97381.59;;;27.47;36.80
73016;BME280;61893;50.074;14.440;2023-07-24T12:07:42;97371.88;;;27.36;37.30
73016;BME280;61893;50.074;14.440;2023-07-24T12:10:09;97375.41;;;27.60;36.72
73016;BME280;61893;50.074;14.440;2023-07-24T12:12:44;97374.75;;;27.21;37.68
73016;BME280;61893;50.074;14.440;2023-07-24T12:15:11;97367.84;;;27.28;37.87
73016;BME280;61893;50.074;14.440;2023-07-24T12:17:38;97365.75;;;27.20;37.85
73016;BME280;61893;50.074;14.440;2023-07-24T12:20:05;97361.00;;;27.02;38.75
73016;BME280;61893;50.074;14.440;2023-07-24T12:22:35;97348.78;;;27.23;38.16
73016;BME280;61893;50.074;14.440;2023-07-24T12:25:04;97343.38;;;27.18;38.49
73016;BME280;61893;50.074;14.440;2023-07-24T12:27:34;97339.84;;;27.42;38.16
73016;BME280;61893;50.074;14.440;2023-07-24T12:30:18;97332.13;;;27.25;38.46
73016;BME280;61893;50.074;14.440;2023-07-24T12:33:00;97325.09;;;27.43;37.36
73016;BME280;61893;50.074;14.440;2023-07-24T12:35:26;97314.84;;;27.53;37.10
73016;BME280;61893;50.074;14.440;2023-07-24T12:38:28;97307.94;;;27.37;37.63
73016;BME280;61893;50.074;14.440;2023-07-24T12:41:01;97303.25;;;27.18;37.65
73016;BME280;61893;50.074;14.440;2023-07-24T12:43:27;97295.06;;;27.13;37.67
73016;BME280;61893;50.074;14.440;2023-07-24T12:46:08;97288.03;;;27.07;37.79
73016;BME280;61893;50.074;14.440;2023-07-24T12:48:52;97286.69;;;27.05;38.01
73016;BME280;61893;50.074;14.440;2023-07-24T12:51:32;97282.72;;;27.64;36.80
73016;BME280;61893;50.074;14.440;2023-07-24T12:54:09;97282.34;;;27.95;36.14
73016;BME280;61893;50.074;14.440;2023-07-24T12:56:39;97286.91;;;28.37;35.05
73016;BME280;61893;50.074;14.440;2023-07-24T12:59:20;97282.59;;;28.50;35.27
73016;BME280;61893;50.074;14.440;2023-07-24T13:01:55;97279.88;;;28.50;35.58
73016;BME280;61893;50.074;14.440;2023-07-24T13:04:22;97270.19;;;29.18;34.56
73016;BME280;61893;50.074;14.440;2023-07-24T13:07:04;97277.81;;;29.35;33.79
73016;BME280;61893;50.074;14.440;2023-07-24T13:09:31;97279.41;;;29.36;33.53
73016;BME280;61893;50.074;14.440;2023-07-24T13:11:57;97284.81;;;29.69;33.04
73016;BME280;61893;50.074;14.440;2023-07-24T13:14:29;97292.09;;;29.59;33.09
73016;BME280;61893;50.074;14.440;2023-07-24T13:16:55;97289.38;;;29.32;33.05
73016;BME280;61893;50.074;14.440;2023-07-24T13:19:29;97293.34;;;28.79;33.61
73016;BME280;61893;50.074;14.440;2023-07-24T13:21:57;97288.41;;;28.95;33.86
73016;BME280;61893;50.074;14.440;2023-07-24T13:24:42;97286.19;;;28.64;34.38
73016;BME280;61893;50.074;14.440;2023-07-24T13:27:19;97274.63;;;28.54;34.19
73016;BME280;61893;50.074;14.440;2023-07-24T13:30:17;97264.88;;;28.47;34.53
73016;BME280;61893;50.074;14.440;2023-07-24T13:33:04;97248.66;;;28.97;33.42
73016;BME280;61893;50.074;14.440;2023-07-24T13:35:34;97251.19;;;28.94;33.93
73016;BME280;61893;50.074;14.440;2023-07-24T13:38:03;97232.41;;;29.01;32.81
73016;BME280;61893;50.074;14.440;2023-07-24T13:40:31;97249.59;;;29.21;33.31
73016;BME280;61893;50.074;14.440;2023-07-24T13:42:57;97247.38;;;29.23;33.02
73016;BME280;61893;50.074;14.440;2023-07-24T13:45:25;97243.50;;;29.37;32.15
73016;BME280;61893;50.074;14.440;2023-07-24T13:47:51;97250.59;;;29.38;32.16
73016;BME280;61893;50.074;14.440;2023-07-24T13:50:17;97251.31;;;29.44;32.40
73016;BME280;61893;50.074;14.440;2023-07-24T13:52:48;97259.25;;;29.32;32.88
73016;BME280;61893;50.074;14.440;2023-07-24T13:55:14;97256.72;;;29.08;32.90
73016;BME280;61893;50.074;14.440;2023-07-24T13:57:41;97251.84;;;29.05;32.92
73016;BME280;61893;50.074;14.440;2023-07-24T14:00:38;97265.16;;;28.92;33.21
73016;BME280;61893;50.074;14.440;2023-07-24T14:03:24;97259.91;;;28.49;32.95
73016;BME280;61893;50.074;14.440;2023-07-24T14:05:55;97265.81;;;28.38;33.80
73016;BME280;61893;50.074;14.440;2023-07-24T14:08:21;97262.16;;;28.28;34.17
73016;BME280;61893;50.074;14.440;2023-07-24T14:11:00;97275.25;;;27.94;34.86
73016;BME280;61893;50.074;14.440;2023-07-24T14:13:40;97281.25;;;27.96;34.93
73016;BME280;61893;50.074;14.440;2023-07-24T14:16:08;97283.59;;;27.83;34.96
73016;BME280;61893;50.074;14.440;2023-07-24T14:18:37;97274.84;;;27.38;37.16
73016;BME280;61893;50.074;14.440;2023-07-24T14:21:03;97297.78;;;27.18;37.43
73016;BME280;61893;50.074;14.440;2023-07-24T14:23:29;97296.44;;;27.16;37.04
73016;BME280;61893;50.074;14.440;2023-07-24T14:25:55;97295.69;;;27.05;37.78
73016;BME280;61893;50.074;14.440;2023-07-24T14:28:23;97292.66;;;26.83;39.91
73016;BME280;61893;50.074;14.440;2023-07-24T14:31:03;97298.69;;;26.45;41.55